KMSN/MSN METAR and TAF weather

Enter ICAO airport designator
Station Type Date Time Source
KMSN METAR 2020/03/31 10:15 UTC NOAA

KMSN 311015Z AUTO 00000KT 9SM OVC029 00/M01 A3010 RMK AO2 T00001011


Station Type Date Time Source
KMSN Decoded METAR 2020/03/31 10:15 UTC NOAA

MADISON DANE COUNTY RGNL, WI, United States (KMSN) 43-08N 89-21W 261M
Mar 31, 2020 - 06:15 AM EDT / 2020.03.31 1015 UTC
Wind: Calm:0
Visibility: 9 mile(s):0
Sky conditions: overcast
Temperature: 32.0 F (0.0 C)
Dew Point: 30.0 F (-1.1 C)
Relative Humidity: 92%
Pressure (altimeter): 30.1 in. Hg (1019 hPa)
ob: KMSN 311015Z AUTO 00000KT 9SM OVC029 00/M01 A3010 RMK AO2 T00001011
cycle: 10

Station Type Date Time Source
KMSN TAF 2020/03/31 08:09 UTC NOAA

TAF
AMD KMSN 310807Z 3108/0106 08006KT P6SM OVC050
FM311000 02007KT P6SM BKN020
FM311300 03009KT P6SM BKN015
FM311900 04007KT P6SM BKN025
FM010300 VRB03KT P6SM BKN035

Example: see airport list